Time;durP1;ratioP1;P1;durP2;ratioP2;P2;SDS_P1;SDS_P2;PMS_P1;PMS_P2;Temp;Humidity;BMP_temperature;BMP_pressure;BME280_temperature;BME280_humidity;BME280_pressure;Samples;Min_cycle;Max_cycle;Signal;HPM_P1;HPM_P2
2021/08/13 00:00:47;;;;;;;6.32;4.57;;;20.10;81.00;;;;;;5095327;28;20020;-72
2021/08/13 00:03:14;;;;;;;6.22;4.80;;;20.10;81.20;;;;;;5095791;28;20519;-72
2021/08/13 00:05:40;;;;;;;7.40;5.00;;;20.10;81.30;;;;;;5095593;28;20020;-72
2021/08/13 00:08:06;;;;;;;9.57;4.50;;;20.00;81.60;;;;;;5095135;28;20473;-72
2021/08/13 00:10:32;;;;;;;6.95;4.68;;;20.00;81.70;;;;;;5094961;28;20470;-72
2021/08/13 00:12:58;;;;;;;7.47;4.80;;;20.00;82.10;;;;;;5094203;28;20145;-72
2021/08/13 00:15:25;;;;;;;7.00;4.72;;;20.00;82.20;;;;;;5094308;28;20454;-72
2021/08/13 00:17:51;;;;;;;7.85;5.18;;;20.00;82.40;;;;;;5094633;28;20027;-72
2021/08/13 00:20:17;;;;;;;8.27;4.45;;;19.90;82.50;;;;;;5094886;28;20049;-73
2021/08/13 00:22:43;;;;;;;6.72;4.53;;;19.90;82.60;;;;;;5095046;28;20066;-72
2021/08/13 00:25:09;;;;;;;6.60;4.75;;;19.80;82.90;;;;;;5095177;28;20020;-72
2021/08/13 00:27:34;;;;;;;6.90;4.90;;;19.80;82.90;;;;;;5093187;28;20116;-72
2021/08/13 00:30:00;;;;;;;9.23;4.60;;;19.80;82.70;;;;;;5094632;28;20200;-73
2021/08/13 00:32:26;;;;;;;7.85;4.63;;;19.80;82.70;;;;;;5095000;28;20402;-73
2021/08/13 00:34:51;;;;;;;6.38;4.78;;;19.80;82.70;;;;;;5094096;28;20024;-72
2021/08/13 00:37:17;;;;;;;7.00;5.03;;;19.80;82.80;;;;;;5094368;28;20097;-72
2021/08/13 00:39:43;;;;;;;5.93;4.72;;;19.80;82.90;;;;;;5094573;28;20020;-72
2021/08/13 00:42:09;;;;;;;7.88;5.03;;;19.80;82.60;;;;;;5093842;28;20035;-72
2021/08/13 00:44:35;;;;;;;7.68;4.78;;;19.80;82.70;;;;;;5094595;28;20025;-72
2021/08/13 00:47:00;;;;;;;6.95;4.40;;;19.70;83.50;;;;;;5093670;28;20413;-72
2021/08/13 00:49:26;;;;;;;9.20;4.97;;;19.70;83.00;;;;;;5094230;28;20028;-72
2021/08/13 00:51:52;;;;;;;7.53;4.40;;;19.70;83.10;;;;;;5094431;28;20042;-72
2021/08/13 00:54:19;;;;;;;6.32;4.80;;;19.70;83.20;;;;;;5093889;28;20032;-72
2021/08/13 00:56:45;;;;;;;6.90;4.57;;;19.60;83.30;;;;;;5093696;28;20020;-72
2021/08/13 00:59:11;;;;;;;8.68;4.85;;;19.70;83.40;;;;;;5093601;28;20028;-72
2021/08/13 01:01:37;;;;;;;8.98;5.13;;;19.60;83.50;;;;;;5094105;28;20021;-73
2021/08/13 01:04:04;;;;;;;5.65;4.53;;;19.70;83.70;;;;;;5092095;28;20024;-73
2021/08/13 01:06:29;;;;;;;5.90;4.70;;;19.60;83.60;;;;;;5094289;28;20059;-72
2021/08/13 01:08:55;;;;;;;6.88;4.72;;;19.60;83.70;;;;;;5094159;28;20433;-72
2021/08/13 01:11:44;;;;;;;9.00;4.85;;;19.60;83.70;;;;;;5093923;28;20114;-72
2021/08/13 01:14:25;;;;;;;6.07;4.47;;;19.60;83.60;;;;;;5077110;28;20036;-72
2021/08/13 01:16:54;;;;;;;5.63;4.40;;;19.70;83.50;;;;;;5094082;28;20424;-72
2021/08/13 01:19:20;;;;;;;5.82;4.97;;;19.60;83.40;;;;;;5093489;28;20020;-72
2021/08/13 01:21:49;;;;;;;6.10;4.85;;;19.60;83.50;;;;;;5091975;28;20371;-72
2021/08/13 01:24:21;;;;;;;7.85;4.50;;;19.60;83.50;;;;;;5093463;28;20055;-72
2021/08/13 01:27:11;;;;;;;7.47;4.72;;;19.60;83.60;;;;;;5093616;28;20052;-72
2021/08/13 01:29:39;;;;;;;7.75;4.70;;;19.60;83.80;;;;;;5093226;28;20050;-72
2021/08/13 01:32:15;;;;;;;7.35;5.30;;;19.60;83.90;;;;;;5093056;28;20496;-72
2021/08/13 01:34:51;;;;;;;5.93;4.50;;;19.60;84.10;;;;;;5092936;28;20028;-72
2021/08/13 01:37:21;;;;;;;9.05;4.82;;;19.50;84.20;;;;;;5092974;28;20100;-72
2021/08/13 01:39:48;;;;;;;7.47;4.70;;;19.40;84.40;;;;;;5093370;28;20028;-72
2021/08/13 01:42:14;;;;;;;9.02;5.30;;;19.40;84.70;;;;;;5093827;28;20028;-72
2021/08/13 01:44:42;;;;;;;6.43;5.13;;;19.40;85.00;;;;;;5093456;28;20518;-72
2021/08/13 01:47:09;;;;;;;6.85;4.82;;;19.40;85.20;;;;;;5092866;28;20093;-72
2021/08/13 01:49:36;;;;;;;7.00;4.68;;;19.40;85.30;;;;;;5093501;28;20035;-72
2021/08/13 01:52:03;;;;;;;7.45;5.05;;;19.40;85.40;;;;;;5094054;28;20498;-73
2021/08/13 01:54:30;;;;;;;6.43;4.72;;;19.40;85.60;;;;;;5093681;28;20477;-73
2021/08/13 01:56:57;;;;;;;8.88;5.18;;;19.30;85.70;;;;;;5093456;28;20024;-73
2021/08/13 01:59:23;;;;;;;9.10;5.28;;;19.30;85.80;;;;;;5094954;28;20363;-73
2021/08/13 02:01:49;;;;;;;7.65;5.32;;;19.30;86.00;;;;;;5097371;28;20039;-73
2021/08/13 02:04:19;;;;;;;6.15;4.72;;;19.30;86.10;;;;;;5098037;28;20437;-73
2021/08/13 02:06:45;;;;;;;;;;;19.30;86.30;;;;;;5098132;28;20030;-73
2021/08/13 02:09:11;;;;;;;6.88;4.47;;;19.10;85.90;;;;;;5097714;28;19908;-73
2021/08/13 02:11:37;;;;;;;6.00;4.55;;;19.20;86.70;;;;;;5097676;28;20469;-72
2021/08/13 02:14:03;;;;;;;7.00;4.78;;;19.20;86.70;;;;;;5097735;28;20036;-73
2021/08/13 02:16:31;;;;;;;8.02;4.93;;;19.20;86.70;;;;;;5096040;28;20123;-73
2021/08/13 02:19:31;;;;;;;9.50;5.13;;;19.20;86.70;;;;;;5096246;28;20020;-72
2021/08/13 02:21:57;;;;;;;5.85;4.72;;;19.20;86.60;;;;;;5097408;28;20093;-73
2021/08/13 02:24:23;;;;;;;7.30;5.10;;;19.10;87.00;;;;;;5095883;28;20024;-73
2021/08/13 02:26:49;;;;;;;6.93;4.78;;;19.10;87.40;;;;;;5097639;28;20031;-73
2021/08/13 02:29:15;;;;;;;8.20;4.97;;;19.00;87.60;;;;;;5096901;28;20078;-72
2021/08/13 02:31:40;;;;;;;6.82;4.72;;;19.00;87.70;;;;;;5096810;28;20213;-73
2021/08/13 02:34:06;;;;;;;8.90;4.82;;;19.00;87.80;;;;;;5097102;28;20416;-73
2021/08/13 02:36:50;;;;;;;8.05;5.22;;;19.00;87.90;;;;;;5096707;28;20063;-73
2021/08/13 02:39:45;;;;;;;7.85;5.05;;;19.00;88.00;;;;;;5096211;28;20485;-73
2021/08/13 02:42:15;;;;;;;7.57;5.10;;;19.00;87.90;;;;;;5096895;28;20099;-73
2021/08/13 02:44:44;;;;;;;9.45;5.38;;;18.90;88.40;;;;;;5096886;28;20016;-73
2021/08/13 02:47:11;;;;;;;10.45;7.22;;;18.90;88.50;;;;;;5097091;28;20036;-73
2021/08/13 02:49:47;;;;;;;12.63;7.20;;;18.90;88.70;;;;;;5096797;28;20024;-73
2021/08/13 02:52:17;;;;;;;9.43;7.43;;;18.90;88.90;;;;;;5095483;28;20030;-73
2021/08/13 02:54:46;;;;;;;11.77;7.57;;;18.90;89.10;;;;;;5096606;28;20016;-73
2021/08/13 02:57:13;;;;;;;10.15;7.80;;;18.80;89.10;;;;;;5096497;28;20028;-73
2021/08/13 02:59:41;;;;;;;13.20;9.00;;;18.80;89.30;;;;;;5096245;28;20049;-73
2021/08/13 03:02:08;;;;;;;15.13;10.45;;;18.80;89.50;;;;;;5096647;28;20024;-73
2021/08/13 03:04:35;;;;;;;18.10;9.73;;;18.80;89.70;;;;;;5095110;28;20024;-73
2021/08/13 03:07:01;;;;;;;11.70;9.23;;;18.90;89.80;;;;;;5097055;28;20107;-73
2021/08/13 03:09:27;;;;;;;11.25;8.30;;;18.80;89.70;;;;;;5095631;28;20466;-72
2021/08/13 03:11:54;;;;;;;10.18;8.02;;;18.90;90.20;;;;;;5095161;28;20352;-73
2021/08/13 03:14:21;;;;;;;42.35;24.25;;;18.90;90.00;;;;;;5096514;28;20024;-72
2021/08/13 03:16:50;;;;;;;26.88;17.92;;;18.90;90.10;;;;;;5096066;28;20030;-72
2021/08/13 03:19:16;;;;;;;39.13;24.35;;;18.80;90.10;;;;;;5096163;28;20017;-72
2021/08/13 03:21:42;;;;;;;28.75;17.10;;;18.90;90.20;;;;;;5096185;28;20463;-72
2021/08/13 03:24:10;;;;;;;34.55;19.83;;;18.90;90.20;;;;;;5096125;28;20035;-72
2021/08/13 03:26:36;;;;;;;50.35;30.70;;;18.90;90.20;;;;;;5096335;28;20024;-73
2021/08/13 03:29:02;;;;;;;64.88;32.88;;;18.90;90.20;;;;;;5096298;28;20020;-72
2021/08/13 03:31:41;;;;;;;83.10;48.38;;;19.00;90.20;;;;;;5096196;28;20084;-72
2021/08/13 03:34:09;;;;;;;45.72;26.05;;;19.00;90.20;;;;;;5096449;28;20031;-72
2021/08/13 03:36:36;;;;;;;20.70;14.02;;;19.10;90.20;;;;;;5095718;28;20068;-71
2021/08/13 03:39:04;;;;;;;15.63;10.25;;;19.10;90.10;;;;;;5096033;28;20078;-72
2021/08/13 03:41:29;;;;;;;17.15;10.55;;;19.10;90.10;;;;;;5096091;28;20167;-72
2021/08/13 03:43:55;;;;;;;9.48;6.75;;;19.20;90.20;;;;;;5096008;28;20112;-72
2021/08/13 03:46:20;;;;;;;9.55;6.78;;;19.20;90.20;;;;;;5095927;28;20020;-72
2021/08/13 03:48:46;;;;;;;8.70;6.28;;;19.20;90.20;;;;;;5096186;28;20063;-72
2021/08/13 03:51:12;;;;;;;13.18;6.95;;;19.30;90.20;;;;;;5095351;28;20020;-72
2021/08/13 03:53:38;;;;;;;15.80;9.25;;;19.30;90.10;;;;;;5095507;28;20142;-72
2021/08/13 03:56:04;;;;;;;9.90;6.40;;;19.40;90.00;;;;;;5095879;28;20048;-72
2021/08/13 03:58:30;;;;;;;9.70;5.68;;;19.40;89.90;;;;;;5095471;28;20027;-71
2021/08/13 04:00:55;;;;;;;6.43;4.82;;;19.50;89.80;;;;;;5095593;28;20107;-72
2021/08/13 04:03:21;;;;;;;9.75;7.03;;;19.50;89.80;;;;;;5095445;28;20058;-72
2021/08/13 04:05:47;;;;;;;9.45;6.45;;;19.50;90.00;;;;;;5095378;28;20032;-72
2021/08/13 04:08:12;;;;;;;11.23;7.40;;;19.60;90.00;;;;;;5094801;28;20028;-72
2021/08/13 04:10:38;;;;;;;9.85;5.82;;;19.50;89.90;;;;;;5095029;28;20034;-72
2021/08/13 04:13:04;;;;;;;6.85;5.20;;;19.60;90.00;;;;;;5094927;28;20024;-72
2021/08/13 04:15:29;;;;;;;7.47;5.20;;;19.70;88.80;;;;;;5094981;28;20038;-72
2021/08/13 04:17:55;;;;;;;8.82;6.00;;;19.70;88.50;;;;;;5094417;28;20028;-72
2021/08/13 04:20:21;;;;;;;8.07;5.55;;;19.80;88.30;;;;;;5094497;28;20032;-73
2021/08/13 04:22:47;;;;;;;7.22;5.30;;;19.80;88.10;;;;;;5094259;28;20036;-73
2021/08/13 04:25:13;;;;;;;7.18;5.22;;;19.80;88.00;;;;;;5094724;28;20020;-71
2021/08/13 04:27:39;;;;;;;6.68;5.00;;;19.80;88.30;;;;;;5094680;28;20458;-72
2021/08/13 04:30:05;;;;;;;7.35;5.00;;;19.90;88.20;;;;;;5094689;28;20028;-72
2021/08/13 04:32:31;;;;;;;9.50;5.50;;;19.90;88.00;;;;;;5094409;28;20020;-72
2021/08/13 04:34:56;;;;;;;11.18;5.80;;;20.00;87.80;;;;;;5093243;28;20043;-71
2021/08/13 04:37:22;;;;;;;7.90;5.20;;;20.00;87.80;;;;;;5093970;28;20049;-71
2021/08/13 04:39:48;;;;;;;7.22;5.72;;;20.10;87.40;;;;;;5092416;28;20067;-72
2021/08/13 04:42:14;;;;;;;18.08;11.43;;;20.10;87.60;;;;;;5093505;28;20016;-71
2021/08/13 04:44:39;;;;;;;10.07;6.13;;;20.20;87.40;;;;;;5093914;28;20027;-72
2021/08/13 04:47:05;;;;;;;8.18;5.40;;;20.30;86.90;;;;;;5093478;28;20103;-73
2021/08/13 04:49:32;;;;;;;5.40;4.57;;;20.30;86.60;;;;;;5092546;28;20070;-72
2021/08/13 04:51:58;;;;;;;6.05;5.00;;;20.40;86.50;;;;;;5093600;28;20099;-71
2021/08/13 04:54:24;;;;;;;7.38;5.30;;;20.40;86.50;;;;;;5093705;28;20134;-73
2021/08/13 04:56:49;;;;;;;7.32;5.28;;;20.40;86.70;;;;;;5093478;28;20085;-71
2021/08/13 04:59:15;;;;;;;7.20;5.78;;;20.50;86.40;;;;;;5093376;28;20036;-72
2021/08/13 05:01:41;;;;;;;15.25;5.72;;;20.50;86.30;;;;;;5093910;28;20024;-71
2021/08/13 05:04:07;;;;;;;7.78;5.35;;;20.50;86.90;;;;;;5093990;28;20425;-71
2021/08/13 05:06:34;;;;;;;7.82;5.88;;;20.60;86.90;;;;;;5094038;28;20435;-71
2021/08/13 05:08:59;;;;;;;8.57;6.25;;;20.70;86.70;;;;;;5093480;28;20367;-71
2021/08/13 05:11:25;;;;;;;9.00;6.18;;;20.80;86.00;;;;;;5093996;28;20028;-73
2021/08/13 05:13:51;;;;;;;6.50;5.47;;;20.90;85.60;;;;;;5093160;28;20035;-70
2021/08/13 05:16:16;;;;;;;5.93;4.95;;;21.00;85.40;;;;;;5092037;28;20378;-71
2021/08/13 05:18:42;;;;;;;8.38;5.10;;;21.00;85.00;;;;;;5092322;28;20462;-72
2021/08/13 05:21:08;;;;;;;7.38;5.00;;;21.00;85.50;;;;;;5093490;28;20056;-70
2021/08/13 05:23:34;;;;;;;9.75;5.00;;;21.00;85.90;;;;;;5093411;28;20305;-70
2021/08/13 05:26:00;;;;;;;6.40;4.65;;;21.10;85.80;;;;;;5093422;28;20024;-70
2021/08/13 05:28:26;;;;;;;5.43;4.68;;;21.10;86.10;;;;;;5093231;28;20016;-70
2021/08/13 05:30:52;;;;;;;9.65;6.03;;;21.20;86.50;;;;;;5093602;28;20072;-73
2021/08/13 05:33:18;;;;;;;8.77;5.47;;;21.30;85.50;;;;;;5092692;28;20039;-70
2021/08/13 05:35:43;;;;;;;6.10;5.00;;;21.40;85.70;;;;;;5098018;28;20028;-71
2021/08/13 05:38:09;;;;;;;5.35;4.78;;;21.40;85.80;;;;;;5092716;28;20563;-73
2021/08/13 05:40:36;;;;;;;7.35;4.70;;;21.40;85.90;;;;;;5093578;28;20019;-74
2021/08/13 05:43:03;;;;;;;8.45;5.22;;;21.50;85.00;;;;;;5093593;28;20021;-70
2021/08/13 05:45:28;;;;;;;6.97;4.80;;;21.50;85.40;;;;;;5092169;28;20016;-71
2021/08/13 05:47:54;;;;;;;8.18;5.80;;;21.50;85.80;;;;;;5093606;28;20089;-73
2021/08/13 05:50:20;;;;;;;10.27;5.40;;;21.60;86.00;;;;;;5093617;28;20435;-74
2021/08/13 05:52:46;;;;;;;5.93;4.68;;;21.60;85.50;;;;;;5093279;28;20032;-71
2021/08/13 05:55:12;;;;;;;6.72;5.45;;;21.50;85.80;;;;;;5092555;28;20028;-72
2021/08/13 05:57:38;;;;;;;11.30;5.57;;;21.70;85.60;;;;;;5093390;28;20032;-73
2021/08/13 06:00:05;;;;;;;6.20;4.93;;;21.70;85.70;;;;;;5093262;28;20027;-70
2021/08/13 06:02:31;;;;;;;8.00;5.45;;;21.70;86.30;;;;;;5092922;28;20024;-71
2021/08/13 06:04:57;;;;;;;7.80;6.18;;;21.70;86.20;;;;;;5093677;28;20428;-71
2021/08/13 06:07:24;;;;;;;8.35;5.50;;;21.80;85.80;;;;;;5093302;28;20383;-70
2021/08/13 06:09:50;;;;;;;8.88;5.97;;;21.90;85.70;;;;;;5093177;28;20020;-70
2021/08/13 06:12:15;;;;;;;10.50;5.90;;;21.80;86.90;;;;;;5093258;28;20157;-69
2021/08/13 06:14:41;;;;;;;8.48;5.90;;;21.90;87.20;;;;;;5093005;28;20092;-69
2021/08/13 06:17:07;;;;;;;6.88;5.38;;;21.80;87.70;;;;;;5092706;28;20051;-70
2021/08/13 06:19:34;;;;;;;7.32;5.50;;;21.90;87.00;;;;;;5093212;28;20609;-69
2021/08/13 06:22:00;;;;;;;8.77;5.55;;;22.00;87.10;;;;;;5093139;28;20446;-70
2021/08/13 06:24:26;;;;;;;6.85;5.28;;;22.10;86.30;;;;;;5093175;28;20020;-73
2021/08/13 06:26:52;;;;;;;6.43;5.20;;;22.00;86.30;;;;;;5093021;28;20074;-70
2021/08/13 06:29:20;;;;;;;8.23;5.50;;;22.00;87.30;;;;;;5093075;28;20028;-72
2021/08/13 06:31:47;;;;;;;8.70;5.40;;;22.00;87.60;;;;;;5093160;28;20389;-70
2021/08/13 06:34:12;;;;;;;8.15;5.28;;;22.00;88.70;;;;;;5093526;28;20441;-71
2021/08/13 06:36:38;;;;;;;7.80;5.95;;;22.00;89.70;;;;;;5092750;28;20072;-70
2021/08/13 06:39:04;;;;;;;7.63;5.60;;;22.00;90.00;;;;;;5093050;28;20023;-71
2021/08/13 06:41:29;;;;;;;6.60;5.63;;;22.00;90.10;;;;;;5093311;28;20047;-71
2021/08/13 06:43:55;;;;;;;9.60;6.03;;;22.20;90.00;;;;;;5093599;28;20056;-73
2021/08/13 06:46:20;;;;;;;6.70;5.40;;;22.30;89.60;;;;;;5097370;28;20025;-70
2021/08/13 06:48:47;;;;;;;6.85;5.22;;;22.20;89.90;;;;;;5096909;28;20332;-69
2021/08/13 06:51:12;;;;;;;8.38;7.30;;;22.30;90.10;;;;;;5096762;28;20024;-69
2021/08/13 06:53:38;;;;;;;7.57;5.43;;;22.30;89.80;;;;;;5097068;28;20024;-72
2021/08/13 06:56:04;;;;;;;7.60;5.60;;;22.40;89.60;;;;;;5096787;28;20024;-73
2021/08/13 06:58:29;;;;;;;7.38;5.50;;;22.50;89.00;;;;;;5096525;28;20024;-68
2021/08/13 07:00:55;;;;;;;6.82;5.43;;;22.60;88.30;;;;;;5096507;28;20016;-71
2021/08/13 07:03:21;;;;;;;8.55;5.55;;;22.50;88.60;;;;;;5096555;28;20024;-69
2021/08/13 07:05:46;;;;;;;5.60;4.93;;;22.50;87.80;;;;;;5096564;28;20032;-70
2021/08/13 07:08:12;;;;;;;6.40;4.80;;;22.50;87.40;;;;;;5096331;28;20070;-69
2021/08/13 07:10:38;;;;;;;6.45;5.10;;;22.60;87.30;;;;;;5096243;28;20023;-70
2021/08/13 07:13:05;;;;;;;6.25;4.78;;;22.70;87.40;;;;;;5096745;28;20368;-69
2021/08/13 07:15:31;;;;;;;8.40;5.38;;;22.70;87.20;;;;;;5096133;28;20081;-69
2021/08/13 07:17:56;;;;;;;6.93;5.20;;;22.80;86.00;;;;;;5096061;28;20020;-69
2021/08/13 07:20:23;;;;;;;6.45;4.38;;;22.80;86.00;;;;;;5096074;28;20417;-71
2021/08/13 07:22:50;;;;;;;5.15;4.60;;;22.90;85.90;;;;;;5096247;28;20538;-69
2021/08/13 07:25:15;;;;;;;7.90;4.45;;;22.90;85.10;;;;;;5096558;28;20027;-70
2021/08/13 07:27:41;;;;;;;7.20;5.60;;;22.90;85.80;;;;;;5096352;28;20028;-70
2021/08/13 07:30:08;;;;;;;6.78;5.13;;;23.00;85.20;;;;;;5096107;28;20560;-71
2021/08/13 07:32:33;;;;;;;7.07;4.75;;;23.10;84.20;;;;;;5095745;28;20463;-69
2021/08/13 07:34:59;;;;;;;5.95;4.82;;;23.10;84.40;;;;;;5096075;28;20032;-72
2021/08/13 07:37:25;;;;;;;6.68;4.97;;;23.10;85.10;;;;;;5095893;28;20040;-70
2021/08/13 07:39:50;;;;;;;6.60;4.95;;;23.10;83.10;;;;;;5095656;28;20036;-71
2021/08/13 07:42:17;;;;;;;5.68;4.18;;;23.10;82.20;;;;;;5096282;28;20047;-72
2021/08/13 07:44:43;;;;;;;7.70;4.45;;;23.10;82.50;;;;;;5095761;28;20451;-69
2021/08/13 07:47:08;;;;;;;7.25;5.00;;;23.10;83.00;;;;;;5095923;28;20035;-69
2021/08/13 07:49:34;;;;;;;5.53;4.40;;;23.20;83.30;;;;;;5095807;28;20020;-73
2021/08/13 07:52:00;;;;;;;6.85;4.85;;;23.20;81.70;;;;;;5095912;28;20038;-69
2021/08/13 07:54:25;;;;;;;6.63;4.43;;;23.30;80.50;;;;;;5095288;28;20058;-69
2021/08/13 07:56:51;;;;;;;5.05;3.80;;;23.30;80.60;;;;;;5095397;28;20035;-69
2021/08/13 07:59:19;;;;;;;6.38;4.50;;;23.20;80.80;;;;;;5095935;28;20407;-69
2021/08/13 08:01:44;;;;;;;4.38;3.90;;;23.20;80.60;;;;;;5095484;28;20016;-70
2021/08/13 08:04:10;;;;;;;4.65;4.15;;;23.40;80.30;;;;;;5095270;28;20385;-70
2021/08/13 08:06:35;;;;;;;4.10;3.67;;;23.50;79.30;;;;;;5095506;28;20509;-70
2021/08/13 08:09:01;;;;;;;4.90;4.07;;;23.50;79.20;;;;;;5093778;28;20123;-70
2021/08/13 08:11:27;;;;;;;5.68;4.75;;;23.50;78.80;;;;;;5095231;28;20020;-69
2021/08/13 08:13:52;;;;;;;4.95;4.05;;;23.50;77.90;;;;;;5095231;28;20458;-69
2021/08/13 08:16:18;;;;;;;5.22;3.40;;;23.60;76.20;;;;;;5095830;28;20028;-72
2021/08/13 08:18:44;;;;;;;4.57;3.53;;;23.70;75.30;;;;;;5094852;28;20020;-76
2021/08/13 08:21:09;;;;;;;3.90;3.50;;;23.70;75.00;;;;;;5095148;28;20054;-72
2021/08/13 08:23:35;;;;;;;10.05;4.30;;;23.70;75.20;;;;;;5095085;28;20020;-70
2021/08/13 08:26:00;;;;;;;6.18;3.55;;;23.70;75.70;;;;;;5095039;28;20062;-73
2021/08/13 08:28:26;;;;;;;3.67;3.38;;;23.80;74.30;;;;;;5095116;28;20031;-73
2021/08/13 08:30:52;;;;;;;5.07;3.50;;;23.90;73.40;;;;;;5094784;28;20027;-72
2021/08/13 08:33:17;;;;;;;7.25;4.03;;;24.00;70.80;;;;;;5094810;28;20028;-72
2021/08/13 08:35:43;;;;;;;4.32;3.40;;;23.90;70.80;;;;;;5094906;28;20024;-72
2021/08/13 08:38:09;;;;;;;4.85;3.63;;;23.90;71.60;;;;;;5094134;28;20052;-70
2021/08/13 08:40:38;;;;;;;5.57;3.85;;;24.00;70.40;;;;;;5095232;28;20024;-72
2021/08/13 08:43:06;;;;;;;6.65;4.00;;;24.00;69.80;;;;;;5093122;28;20062;-70
2021/08/13 08:45:36;;;;;;;7.13;3.90;;;24.10;69.70;;;;;;5094869;28;20477;-70
2021/08/13 08:48:04;;;;;;;4.35;3.63;;;24.10;69.70;;;;;;5094644;28;20450;-74
2021/08/13 08:50:32;;;;;;;5.20;3.80;;;24.10;69.70;;;;;;5094467;28;20111;-70
2021/08/13 08:53:00;;;;;;;6.68;4.25;;;24.20;69.00;;;;;;5094672;28;20386;-71
2021/08/13 08:55:26;;;;;;;4.65;3.70;;;24.20;69.10;;;;;;5094584;28;20016;-73
2021/08/13 08:57:56;;;;;;;5.03;4.10;;;24.10;69.20;;;;;;5094223;28;20103;-69
2021/08/13 09:00:22;;;;;;;;;;;24.10;69.40;;;;;;5094985;28;20020;-70
2021/08/13 09:02:49;;;;;;;5.78;3.95;;;24.10;69.70;;;;;;5094186;28;19904;-74
2021/08/13 09:05:15;;;;;;;5.68;4.18;;;24.10;70.10;;;;;;5094678;28;20094;-74
2021/08/13 09:07:40;;;;;;;5.35;3.92;;;24.10;69.80;;;;;;5094366;28;20024;-71
2021/08/13 09:10:10;;;;;;;4.10;3.70;;;24.20;68.90;;;;;;5094061;28;20031;-75
2021/08/13 09:12:36;;;;;;;4.55;3.63;;;24.20;69.30;;;;;;5094046;28;20028;-70
2021/08/13 09:15:02;;;;;;;5.72;3.65;;;24.20;68.60;;;;;;5094354;28;20356;-70
2021/08/13 09:17:29;;;;;;;5.53;3.63;;;24.30;67.90;;;;;;5094045;28;20027;-69
2021/08/13 09:19:56;;;;;;;4.50;3.10;;;24.30;68.00;;;;;;5094573;28;20024;-74
2021/08/13 09:22:22;;;;;;;3.67;3.38;;;24.30;68.60;;;;;;5094103;28;20462;-71
2021/08/13 09:24:50;;;;;;;4.38;3.58;;;24.40;67.80;;;;;;5093891;28;20498;-69
2021/08/13 09:27:23;;;;;;;4.68;3.35;;;24.30;67.60;;;;;;5094448;28;20043;-71
2021/08/13 09:30:15;;;;;;;4.43;3.33;;;24.50;67.20;;;;;;5093872;28;20028;-77
2021/08/13 09:32:56;;;;;;;4.13;3.28;;;24.50;67.10;;;;;;5094366;28;20035;-74
2021/08/13 09:35:40;;;;;;;9.60;3.35;;;24.60;66.00;;;;;;5093409;28;20078;-73
2021/08/13 09:38:13;;;;;;;4.18;3.00;;;24.50;66.20;;;;;;5093553;28;20076;-70
2021/08/13 09:40:41;;;;;;;3.25;2.95;;;24.50;66.70;;;;;;5094486;28;20051;-72
2021/08/13 09:43:07;;;;;;;6.95;3.22;;;24.60;66.40;;;;;;5093602;28;20061;-76
2021/08/13 09:45:34;;;;;;;3.40;3.03;;;24.60;66.00;;;;;;5093653;28;20020;-68
2021/08/13 09:48:00;;;;;;;3.72;3.10;;;24.60;66.20;;;;;;5093585;28;20069;-68
2021/08/13 09:50:41;;;;;;;3.35;2.97;;;24.60;65.40;;;;;;5093545;28;20028;-71
2021/08/13 09:53:14;;;;;;;4.55;3.30;;;24.60;65.10;;;;;;5093952;28;20378;-73
2021/08/13 09:55:44;;;;;;;7.03;3.28;;;24.60;64.90;;;;;;5094238;28;20077;-70
2021/08/13 09:58:11;;;;;;;4.00;3.05;;;24.60;65.10;;;;;;5093512;28;20111;-72
2021/08/13 10:00:47;;;;;;;3.40;3.08;;;24.70;64.40;;;;;;5093547;28;20420;-69
2021/08/13 10:03:14;;;;;;;3.72;3.13;;;24.60;64.60;;;;;;5093763;28;20039;-70
2021/08/13 10:05:40;;;;;;;3.50;2.90;;;24.70;65.10;;;;;;5094044;28;20020;-73
2021/08/13 10:08:06;;;;;;;4.18;3.25;;;24.80;64.50;;;;;;5093408;28;20473;-69
2021/08/13 10:10:42;;;;;;;5.22;3.30;;;24.80;64.00;;;;;;5094057;28;20035;-72
2021/08/13 10:13:10;;;;;;;5.00;3.30;;;24.80;64.10;;;;;;5093683;28;20027;-73
2021/08/13 10:15:39;;;;;;;4.72;2.97;;;24.80;64.40;;;;;;5093448;28;20435;-73
2021/08/13 10:18:10;;;;;;;3.22;2.78;;;24.90;64.60;;;;;;5094045;28;20457;-71
2021/08/13 10:20:45;;;;;;;3.42;2.95;;;25.00;63.80;;;;;;5096681;28;20497;-69
2021/08/13 10:23:12;;;;;;;3.78;3.00;;;25.00;63.40;;;;;;5097703;28;20028;-79
2021/08/13 10:25:39;;;;;;;4.60;2.92;;;25.10;63.10;;;;;;5097645;28;20024;-78
2021/08/13 10:28:05;;;;;;;3.13;2.70;;;25.00;63.50;;;;;;5096422;28;20032;-71
2021/08/13 10:30:31;;;;;;;3.17;2.60;;;25.00;64.00;;;;;;5097486;28;20028;-71
2021/08/13 10:33:01;;;;;;;3.65;3.28;;;25.00;64.90;;;;;;5097485;28;20474;-75
2021/08/13 10:35:41;;;;;;;3.95;2.83;;;25.10;64.20;;;;;;5097512;28;20396;-69
2021/08/13 10:38:09;;;;;;;3.20;2.90;;;25.20;63.50;;;;;;5096898;28;20044;-73
2021/08/13 10:40:37;;;;;;;5.07;3.28;;;25.20;64.30;;;;;;5097192;28;20073;-71
2021/08/13 10:43:04;;;;;;;3.55;3.08;;;25.20;64.10;;;;;;5097252;28;20135;-69
2021/08/13 10:45:34;;;;;;;3.65;2.88;;;25.30;63.80;;;;;;5097169;28;20020;-68
2021/08/13 10:48:14;;;;;;;3.30;3.00;;;25.20;63.70;;;;;;5097073;28;20084;-70
2021/08/13 10:50:41;;;;;;;6.25;3.28;;;25.30;64.60;;;;;;5096739;28;20633;-69
2021/08/13 10:53:35;;;;;;;2.90;2.60;;;25.30;63.80;;;;;;5096561;28;20118;-69
2021/08/13 10:56:03;;;;;;;5.63;2.60;;;25.20;64.40;;;;;;5096948;28;20038;-68
2021/08/13 10:58:39;;;;;;;3.20;2.90;;;25.20;65.10;;;;;;5096571;28;20382;-69
2021/08/13 11:01:06;;;;;;;3.65;2.90;;;25.30;64.00;;;;;;5096575;28;20016;-68
2021/08/13 11:03:36;;;;;;;3.25;2.70;;;25.30;64.20;;;;;;5096637;28;20020;-69
2021/08/13 11:06:02;;;;;;;4.10;2.90;;;25.30;63.40;;;;;;5096580;28;20036;-68
2021/08/13 11:08:40;;;;;;;20.05;3.55;;;25.40;63.90;;;;;;5097076;28;20102;-83
2021/08/13 11:11:13;;;;;;;3.05;2.70;;;25.50;63.60;;;;;;5096908;28;20106;-77
2021/08/13 11:13:44;;;;;;;4.68;3.00;;;25.50;63.80;;;;;;5096604;28;20487;-68
2021/08/13 11:16:25;;;;;;;3.17;2.75;;;25.50;63.90;;;;;;5096844;28;20028;-68
2021/08/13 11:19:00;;;;;;;2.90;2.60;;;25.50;63.50;;;;;;5096226;28;20024;-70
2021/08/13 11:21:41;;;;;;;3.75;3.38;;;25.60;63.00;;;;;;5095271;28;20111;-68
2021/08/13 11:24:12;;;;;;;5.07;3.88;;;25.50;62.90;;;;;;5096544;28;20433;-70
2021/08/13 11:26:50;;;;;;;4.03;3.08;;;25.60;63.20;;;;;;5096459;28;20039;-70
2021/08/13 11:29:43;;;;;;;5.78;4.95;;;25.50;63.30;;;;;;5096645;28;20020;-70
2021/08/13 11:32:23;;;;;;;3.15;2.80;;;25.60;63.10;;;;;;5095984;28;20020;-70
2021/08/13 11:35:08;;;;;;;2.92;2.60;;;25.60;63.20;;;;;;5094713;28;20020;-70
2021/08/13 11:37:44;;;;;;;3.08;2.78;;;25.60;62.90;;;;;;5095184;28;20048;-68
2021/08/13 11:40:13;;;;;;;4.05;2.78;;;25.60;63.00;;;;;;5095888;28;20093;-69
2021/08/13 11:42:57;;;;;;;5.72;2.95;;;25.70;62.50;;;;;;5094591;28;20352;-69
2021/08/13 11:45:37;;;;;;;4.18;2.85;;;25.70;62.90;;;;;;5096059;28;20043;-69
2021/08/13 11:48:05;;;;;;;4.07;2.70;;;25.70;62.90;;;;;;5096070;28;20027;-71
2021/08/13 11:50:31;;;;;;;4.63;3.08;;;25.80;62.80;;;;;;5096072;28;20516;-77
2021/08/13 11:52:57;;;;;;;2.72;2.53;;;25.90;61.50;;;;;;5095793;28;20024;-69
2021/08/13 11:55:31;;;;;;;5.85;3.25;;;25.80;61.80;;;;;;5095741;28;20020;-70
2021/08/13 11:57:59;;;;;;;3.08;2.78;;;25.90;61.70;;;;;;5095494;28;20063;-71
2021/08/13 12:00:30;;;;;;;2.70;2.50;;;26.00;60.10;;;;;;5095931;28;20358;-71
2021/08/13 12:03:05;;;;;;;4.20;2.40;;;26.00;60.60;;;;;;5095659;28;20458;-70
2021/08/13 12:05:33;;;;;;;3.65;2.60;;;26.10;61.00;;;;;;5095368;28;20113;-68
2021/08/13 12:08:04;;;;;;;3.47;2.70;;;26.20;60.70;;;;;;5096025;28;20370;-68
2021/08/13 12:10:31;;;;;;;4.60;2.60;;;26.20;61.20;;;;;;5095321;28;20378;-74
2021/08/13 12:12:57;;;;;;;4.25;3.00;;;26.60;60.90;;;;;;5095156;28;20025;-69
2021/08/13 12:15:28;;;;;;;3.00;2.67;;;27.70;59.90;;;;;;5095646;28;20030;-70
2021/08/13 12:17:54;;;;;;;4.65;2.30;;;29.60;57.60;;;;;;5095069;28;20024;-70
2021/08/13 12:20:20;;;;;;;3.88;2.65;;;31.40;55.10;;;;;;5095516;28;20016;-69
2021/08/13 12:22:46;;;;;;;4.28;2.53;;;32.70;52.40;;;;;;5095177;28;20020;-70
2021/08/13 12:25:13;;;;;;;2.20;2.10;;;33.80;51.50;;;;;;5094770;28;20145;-73
2021/08/13 12:27:41;;;;;;;2.33;2.10;;;34.90;50.00;;;;;;5095210;28;20035;-70
2021/08/13 12:30:20;;;;;;;3.08;2.30;;;35.60;48.40;;;;;;5094939;28;20032;-69
2021/08/13 12:32:47;;;;;;;2.78;2.08;;;36.30;48.50;;;;;;5094791;28;20074;-68
2021/08/13 12:35:14;;;;;;;2.35;1.88;;;37.30;47.40;;;;;;5094911;28;20024;-74
2021/08/13 12:37:41;;;;;;;3.65;2.30;;;38.00;45.00;;;;;;5092921;28;20044;-67
2021/08/13 12:40:09;;;;;;;4.35;2.20;;;38.20;44.50;;;;;;5094646;28;20024;-67
2021/08/13 12:42:36;;;;;;;3.43;2.33;;;38.40;44.30;;;;;;5094117;28;20016;-67
2021/08/13 12:45:07;;;;;;;3.53;2.13;;;38.40;43.90;;;;;;5094586;28;20021;-66
2021/08/13 12:47:34;;;;;;;2.90;2.35;;;38.30;44.10;;;;;;5093656;28;20024;-68
2021/08/13 12:49:59;;;;;;;3.55;2.33;;;38.40;43.70;;;;;;5094571;28;20028;-70